EST,Max TemperatureF,Mean TemperatureF,Min TemperatureF,Max Dew PointF,MeanDew PointF,Min DewpointF,Max Humidity, Mean Humidity, Min Humidity, Max Sea Level PressureIn, Mean Sea Level PressureIn, Min Sea Level PressureIn, Max VisibilityMiles, Mean VisibilityMiles, Min VisibilityMiles, Max Wind SpeedMPH, Mean Wind SpeedMPH, Max Gust SpeedMPH,PrecipitationIn, CloudCover, Events, WindDirDegrees
2014-1-1,21,18,15,11,8,1,81,66,52,30.38,30.32,30.20,10,9,2,12,7,16,0.00,6,Snow,280
2014-1-2,16,8,0,13,6,-6,92,76,64,30.32,30.05,29.82,5,2,0,23,7,34,0.15,8,Snow,96
2014-1-3,1,-6,-14,-8,-12,-19,84,72,55,30.48,30.06,29.81,10,5,1,13,9,22,0.05,5,Snow,264
2014-1-4,24,5,-14,3,-6,-20,83,64,31,30.50,30.37,30.27,10,10,8,12,3,,0.00,0,,122
2014-1-5,44,22,0,41,18,-5,93,72,38,30.34,30.15,29.82,10,9,4,23,5,33,0.06,4,Rain,104
2014-1-6,60,40,14,54,36,-2,100,83,49,29.76,29.46,29.32,10,6,1,22,12,37,0.88,8,Rain-Snow,240
2014-1-7,12,8,3,-4,-9,-14,72,52,43,30.25,29.98,29.68,10,9,1,21,14,31,0.00,6,Snow,271
2014-1-8,18,12,5,5,-2,-9,77,58,45,30.48,30.41,30.28,10,10,10,15,7,23,0.00,2,,279
2014-1-9,25,18,10,10,6,2,87,63,46,30.65,30.57,30.44,10,10,10,13,7,24,0.00,4,,278
2014-1-10,35,22,10,31,21,7,92,83,68,30.57,30.40,30.22,10,7,1,10,7,,0.01,7,Snow,105
2014-1-11,62,48,33,55,47,30,100,87,72,30.19,29.62,29.25,10,7,1,20,9,39,0.89,8,Rain,132
2014-1-12,43,39,34,38,27,22,82,67,59,30.00,29.68,29.37,10,10,10,21,12,37,0.02,8,Rain,274
2014-1-13,50,38,25,32,26,22,88,59,39,30.09,29.99,29.83,10,10,10,10,6,25,0.00,1,,150
2014-1-14,50,44,37,43,39,31,100,89,50,29.81,29.73,29.67,10,6,0,17,5,28,0.43,7,Fog-Rain,226
2014-1-15,48,37,26,34,30,24,92,74,54,29.98,29.91,29.82,10,10,5,15,6,,0.00,4,,216
2014-1-16,37,32,28,32,28,26,93,90,80,29.95,29.90,29.87,10,5,0,7,3,,0.03,8,Fog-Snow,272
2014-1-17,39,29,19,28,25,18,100,86,53,29.96,29.92,29.89,10,7,2,6,1,,0.00,5,Snow,180
2014-1-18,37,30,23,32,26,20,100,88,70,29.89,29.72,29.61,10,4,0,10,3,,0.11,7,Fog-Snow,261
2014-1-19,30,26,21,21,18,15,93,75,56,29.77,29.64,29.53,10,7,1,10,6,17,0.00,8,Snow,268
2014-1-20,36,26,15,28,20,2,93,70,52,29.94,29.63,29.51,10,7,0,16,8,37,0.02,8,Fog-Snow,278
2014-1-21,12,8,1,2,-6,-10,63,56,42,30.08,30.02,29.96,10,10,10,9,6,,0.00,5,,281
2014-1-22,5,-1,-7,-9,-12,-16,69,60,50,30.01,29.94,29.84,10,10,10,13,7,22,0.00,0,,271
2014-1-23,14,6,-2,0,-6,-10,72,60,35,30.21,30.12,30.02,10,10,6,15,7,25,0.00,5,,270
2014-1-24,14,7,0,-4,-6,-10,66,54,39,30.32,30.19,29.96,10,10,10,16,11,24,0.00,2,,266
2014-1-25,21,18,15,18,11,-5,93,71,37,29.93,29.50,29.34,10,3,0,17,8,34,0.05,7,Fog-Snow,136
2014-1-26,19,12,6,8,-2,-11,62,50,40,29.82,29.71,29.40,10,10,9,18,11,30,0.00,4,,262
2014-1-27,39,26,10,24,10,-7,78,57,35,30.05,29.71,29.51,10,7,1,18,11,31,0.00,6,Snow,273
2014-1-28,12,8,5,-1,-9,-17,70,46,35,30.32,30.24,30.06,10,10,10,17,8,25,0.00,0,,274
2014-1-29,19,7,-5,0,-7,-11,80,49,27,30.24,30.13,29.99,10,10,10,13,4,18,0.00,1,,276
2014-1-30,27,14,0,5,-1,-5,79,53,29,30.44,30.30,30.11,10,10,10,8,3,,0.00,0,,90
2014-1-31,35,26,16,18,10,-1,69,48,33,30.20,30.09,30.02,10,10,10,10,6,29,0.00,3,,285